»·PEaware :: N5002T KSBA-KSNA

N5002T :: KSBA-KSNA

FLIGHT INFORMATION

Flight Status: Arrived
Operator: Privately registered:
United States
More flights under this callsign
Pilot: Hunter M. (19355)
Aircraft: CESSNA 172 SKYHAWK
(C172)
More flights by this aircraft type
Origin: KSBA Santa Barbara Mun
United States
Destination: KSNA John Wayne-Orange Co
United States
More flights between these airports :: More routes between these airports
Route: +POXKU V8 SLI
File this flight plan on PilotEdge
Remarks: tec route SBAP6
Altitude:
(Current/Filed)
6,000ft
Speed:
(Current/Filed)
118kts
Departed: 23-Apr-19 11:26 AM
Arrived: 23-Apr-19 12:52 PM
Distance/Time
Traveled:
108nm/1:26
Distance/Time
To Go:
Arrived

Flight Plot

Page will automatically refresh every two minutes.

Flight plan parsing failed; only flown route is shown


Map Options




Map Legend


Flown Route
Filed Route
Departure Airport
Arrival Airport
Navaid (VOR, NDB)
Fix

Horizontal Profiles

Position Reports

Time Latitude Longitude Heading Altitude Ground
Speed
23-Apr-19 10:41 34.431455 -119.831911 357 13ft 0kts
23-Apr-19 10:42 34.431455 -119.831911 357 13ft 0kts
23-Apr-19 10:43 34.431455 -119.831911 357 13ft 0kts
23-Apr-19 10:44 34.431455 -119.831911 357 13ft 0kts
23-Apr-19 10:45 34.431455 -119.831911 357 13ft 0kts
23-Apr-19 10:46 34.431455 -119.831911 357 13ft 0kts
23-Apr-19 10:47 34.431455 -119.831911 357 13ft 0kts
23-Apr-19 10:48 34.431455 -119.831911 357 13ft 0kts
23-Apr-19 10:49 34.431455 -119.831911 357 13ft 0kts
23-Apr-19 10:50 34.431455 -119.831911 357 13ft 0kts
23-Apr-19 10:51 34.431455 -119.831911 357 13ft 0kts
23-Apr-19 10:52 34.431455 -119.831911 357 13ft 0kts
23-Apr-19 10:53 34.431455 -119.831911 357 13ft 0kts
23-Apr-19 10:54 34.431455 -119.831911 357 13ft 0kts
23-Apr-19 10:55 34.431455 -119.831911 357 13ft 0kts
23-Apr-19 10:56 34.431455 -119.831911 357 13ft 0kts
23-Apr-19 10:57 34.431455 -119.831911 357 13ft 0kts
23-Apr-19 10:58 34.431455 -119.831911 357 13ft 0kts
23-Apr-19 10:59 34.431455 -119.831911 357 13ft 0kts
23-Apr-19 11:00 34.431455 -119.831911 357 13ft 0kts
23-Apr-19 11:01 34.431455 -119.831911 357 13ft 0kts
23-Apr-19 11:02 34.431455 -119.831911 357 13ft 0kts
23-Apr-19 11:03 34.431455 -119.831911 357 13ft 0kts
23-Apr-19 11:04 34.431455 -119.831911 357 13ft 0kts
23-Apr-19 11:05 34.431455 -119.831911 357 13ft 0kts
23-Apr-19 11:06 34.431455 -119.831911 357 13ft 0kts
23-Apr-19 11:07 34.431455 -119.831911 357 13ft 0kts
23-Apr-19 11:08 34.431455 -119.831911 357 13ft 0kts
23-Apr-19 11:09 34.431455 -119.831911 357 13ft 0kts
23-Apr-19 11:10 34.431455 -119.831911 357 13ft 0kts
23-Apr-19 11:11 34.431455 -119.831911 357 13ft 0kts
23-Apr-19 11:12 34.431455 -119.831911 357 13ft 0kts
23-Apr-19 11:13 34.431455 -119.831911 357 13ft 0kts
23-Apr-19 11:14 34.431455 -119.831911 357 13ft 0kts
23-Apr-19 11:15 34.431455 -119.831911 357 13ft 0kts
23-Apr-19 11:16 34.431455 -119.831911 357 13ft 0kts
23-Apr-19 11:17 34.431455 -119.831911 357 13ft 0kts
23-Apr-19 11:18 34.430701 -119.832013 151 13ft 1kts
23-Apr-19 11:19 34.429326 -119.832082 183 13ft 0kts
23-Apr-19 11:20 34.429096 -119.832514 268 13ft 4kts
23-Apr-19 11:21 34.429067 -119.834838 268 13ft 3kts
23-Apr-19 11:22 34.428626 -119.835194 181 13ft 0kts
23-Apr-19 11:23 34.427898 -119.835436 267 13ft 0kts
23-Apr-19 11:24 34.427890 -119.835615 266 13ft 15kts
23-Apr-19 11:25 34.427388 -119.861758 268 503ft 94kts
23-Apr-19 11:26 34.428049 -119.893006 269 1384ft 92kts
23-Apr-19 11:27 34.429007 -119.923914 269 2221ft 91kts
23-Apr-19 11:28 34.427472 -119.953790 269 2994ft 89kts
23-Apr-19 11:29 34.425664 -119.988036 269 2999ft 105kts
23-Apr-19 11:30 34.423820 -120.023158 269 3007ft 104kts
23-Apr-19 11:31 34.421931 -120.058241 269 3008ft 104kts
23-Apr-19 11:32 34.420060 -120.093411 270 3009ft 104kts
23-Apr-19 11:33 34.418218 -120.128600 270 3010ft 104kts
23-Apr-19 11:34 34.399340 -120.126059 93 3022ft 112kts
23-Apr-19 11:35 34.394162 -120.088865 96 3301ft 107kts
23-Apr-19 11:36 34.389167 -120.054301 96 3872ft 102kts
23-Apr-19 11:37 34.384249 -120.020393 95 4462ft 101kts
23-Apr-19 11:38 34.379360 -119.986838 96 5001ft 104kts
23-Apr-19 11:39 34.373611 -119.947986 97 5005ft 124kts
23-Apr-19 11:40 34.367541 -119.906783 97 4999ft 123kts
23-Apr-19 11:41 34.361902 -119.868425 96 4995ft 111kts
23-Apr-19 11:42 34.356507 -119.831756 96 5000ft 110kts
23-Apr-19 11:43 34.351099 -119.795172 96 5000ft 110kts
23-Apr-19 11:44 34.345680 -119.758599 96 5000ft 110kts
23-Apr-19 11:45 34.340237 -119.721960 96 4999ft 110kts
23-Apr-19 11:46 34.334767 -119.685210 96 4999ft 110kts
23-Apr-19 11:47 34.329302 -119.648571 96 4999ft 110kts
23-Apr-19 11:48 34.323828 -119.611948 96 4999ft 110kts
23-Apr-19 11:49 34.318342 -119.575324 96 4999ft 110kts
23-Apr-19 11:50 34.312845 -119.538707 96 4999ft 110kts
23-Apr-19 11:51 34.306432 -119.502122 103 5008ft 111kts
23-Apr-19 11:52 34.298128 -119.465828 103 5000ft 112kts
23-Apr-19 11:53 34.289836 -119.429529 103 5001ft 112kts
23-Apr-19 11:54 34.281501 -119.393209 104 5000ft 112kts
23-Apr-19 11:55 34.273175 -119.356945 103 5002ft 112kts
23-Apr-19 11:56 34.264798 -119.320807 103 5023ft 110kts
23-Apr-19 11:57 34.254968 -119.284909 111 5017ft 110kts
23-Apr-19 11:58 34.245858 -119.248734 100 4991ft 110kts
23-Apr-19 12:00 34.239133 -119.211687 100 5056ft 116kts
23-Apr-19 12:01 34.229156 -119.173836 108 5030ft 116kts
23-Apr-19 12:02 34.219457 -119.136701 105 5021ft 114kts
23-Apr-19 12:03 34.211260 -119.099356 100 4986ft 117kts
23-Apr-19 12:04 34.212510 -119.061240 82 5001ft 112kts
23-Apr-19 12:05 34.213882 -119.023516 84 5003ft 113kts
23-Apr-19 12:06 34.214730 -118.985549 85 5002ft 113kts
23-Apr-19 12:07 34.215479 -118.947558 85 5002ft 113kts
23-Apr-19 12:08 34.216213 -118.909440 85 5002ft 113kts
23-Apr-19 12:09 34.216932 -118.871486 85 5002ft 113kts
23-Apr-19 12:10 34.217640 -118.833400 85 5002ft 113kts
23-Apr-19 12:11 34.218336 -118.795347 85 5005ft 113kts
23-Apr-19 12:12 34.218999 -118.757311 87 5005ft 113kts
23-Apr-19 12:13 34.212738 -118.719475 99 5006ft 114kts
23-Apr-19 12:14 34.206092 -118.681851 99 5005ft 114kts
23-Apr-19 12:15 34.199439 -118.644190 99 5004ft 114kts
23-Apr-19 12:16 34.192753 -118.606437 99 5000ft 114kts
23-Apr-19 12:17 34.186092 -118.568856 99 4998ft 114kts
23-Apr-19 12:18 34.179393 -118.531123 99 4995ft 114kts
23-Apr-19 12:18 34.173824 -118.499815 99 4993ft 114kts
23-Apr-19 12:19 34.167132 -118.462251 100 4992ft 114kts
23-Apr-19 12:21 34.159303 -118.418393 100 4992ft 114kts
23-Apr-19 12:21 34.153694 -118.387034 100 4993ft 114kts
23-Apr-19 12:22 34.146956 -118.349422 100 4994ft 114kts
23-Apr-19 12:23 34.140238 -118.311997 100 4996ft 114kts
23-Apr-19 12:24 34.133502 -118.274540 100 4996ft 114kts
23-Apr-19 12:25 34.126749 -118.237048 100 4994ft 114kts
23-Apr-19 12:26 34.119948 -118.199379 100 4984ft 114kts
23-Apr-19 12:27 34.113130 -118.161758 100 4982ft 114kts
23-Apr-19 12:28 34.106298 -118.124066 102 4979ft 114kts
23-Apr-19 12:29 34.099480 -118.086555 100 4977ft 110kts
23-Apr-19 12:30 34.089347 -118.051258 109 5017ft 114kts
23-Apr-19 12:31 34.078021 -118.015453 100 5056ft 111kts
23-Apr-19 12:32 34.075427 -117.977624 87 5012ft 114kts
23-Apr-19 12:33 34.074079 -117.939215 96 4964ft 114kts
23-Apr-19 12:34 34.055381 -117.910129 146 4880ft 114kts
23-Apr-19 12:35 34.030349 -117.887664 145 4976ft 106kts
23-Apr-19 12:36 34.004957 -117.868102 172 5029ft 110kts
23-Apr-19 12:37 33.974747 -117.857080 156 4765ft 118kts
23-Apr-19 12:38 33.944858 -117.838674 154 4128ft 120kts
23-Apr-19 12:39 33.915601 -117.820560 155 4012ft 116kts
23-Apr-19 12:40 33.886903 -117.802807 155 4014ft 115kts
23-Apr-19 12:41 33.867450 -117.772396 120 3732ft 120kts
23-Apr-19 12:42 33.842013 -117.758297 211 3116ft 111kts
23-Apr-19 12:43 33.820726 -117.780035 228 3004ft 93kts
23-Apr-19 12:44 33.797340 -117.793917 196 2926ft 95kts
23-Apr-19 12:45 33.774023 -117.805159 210 2367ft 79kts
23-Apr-19 12:46 33.756227 -117.817757 208 1576ft 71kts
23-Apr-19 12:47 33.738906 -117.828714 206 1245ft 70kts
23-Apr-19 12:48 33.721153 -117.839598 208 993ft 72kts
23-Apr-19 12:49 33.703290 -117.851558 205 599ft 72kts
23-Apr-19 12:50 33.685349 -117.862733 208 195ft 64kts
23-Apr-19 12:51 33.678224 -117.867690 297 59ft 8kts
23-Apr-19 12:52 33.678425 -117.868251 285 59ft 0kts
23-Apr-19 12:53 33.679010 -117.869711 299 59ft 0kts

Navigation Log

Ident Type
Flight plan parsing failed, navigation log unavailable